sensor_id;sensor_type;location;lat;lon;timestamp;pressure;altitude;pressure_sealevel;temperature;humidity
5609;BME280;2826;51.354;9.588;2022-10-19T00:01:10;99308.56;;;8.19;100.00
5609;BME280;2826;51.354;9.588;2022-10-19T00:03:38;99318.00;;;8.20;100.00
5609;BME280;2826;51.354;9.588;2022-10-19T00:06:13;99311.97;;;8.20;100.00
5609;BME280;2826;51.354;9.588;2022-10-19T00:08:41;99311.19;;;8.15;100.00
5609;BME280;2826;51.354;9.588;2022-10-19T00:11:09;99306.91;;;8.12;100.00
5609;BME280;2826;51.354;9.588;2022-10-19T00:13:38;99310.38;;;8.09;100.00
5609;BME280;2826;51.354;9.588;2022-10-19T00:16:09;99316.44;;;8.07;100.00
5609;BME280;2826;51.354;9.588;2022-10-19T00:18:37;99324.19;;;8.05;100.00
5609;BME280;2826;51.354;9.588;2022-10-19T00:21:04;99322.53;;;8.01;100.00
5609;BME280;2826;51.354;9.588;2022-10-19T00:23:32;99331.16;;;7.97;100.00
5609;BME280;2826;51.354;9.588;2022-10-19T00:25:59;99329.50;;;7.93;100.00
5609;BME280;2826;51.354;9.588;2022-10-19T00:28:26;99323.50;;;7.92;100.00
5609;BME280;2826;51.354;9.588;2022-10-19T00:30:54;99334.66;;;7.91;100.00
5609;BME280;2826;51.354;9.588;2022-10-19T00:33:21;99338.13;;;7.89;100.00
5609;BME280;2826;51.354;9.588;2022-10-19T00:35:50;99333.84;;;7.89;100.00
5609;BME280;2826;51.354;9.588;2022-10-19T00:38:18;99336.44;;;7.88;100.00
5609;BME280;2826;51.354;9.588;2022-10-19T00:40:45;99335.56;;;7.87;100.00
5609;BME280;2826;51.354;9.588;2022-10-19T00:43:14;99345.06;;;7.85;100.00
5609;BME280;2826;51.354;9.588;2022-10-19T00:45:42;99347.66;;;7.83;100.00
5609;BME280;2826;51.354;9.588;2022-10-19T00:48:13;99349.41;;;7.81;100.00
5609;BME280;2826;51.354;9.588;2022-10-19T00:50:42;99352.03;;;7.78;100.00
5609;BME280;2826;51.354;9.588;2022-10-19T00:53:10;99349.44;;;7.77;100.00
5609;BME280;2826;51.354;9.588;2022-10-19T00:55:38;99346.84;;;7.78;100.00
5609;BME280;2826;51.354;9.588;2022-10-19T00:58:07;99324.56;;;7.68;100.00
5609;BME280;2826;51.354;9.588;2022-10-19T01:00:35;99338.22;;;7.79;100.00
5609;BME280;2826;51.354;9.588;2022-10-19T01:03:03;99337.41;;;7.77;100.00
5609;BME280;2826;51.354;9.588;2022-10-19T01:05:33;99340.00;;;7.76;100.00
5609;BME280;2826;51.354;9.588;2022-10-19T01:08:00;99333.13;;;7.75;100.00
5609;BME280;2826;51.354;9.588;2022-10-19T01:10:33;99336.56;;;7.74;100.00
5609;BME280;2826;51.354;9.588;2022-10-19T01:13:13;99341.75;;;7.72;100.00
5609;BME280;2826;51.354;9.588;2022-10-19T01:15:48;99338.31;;;7.73;100.00
5609;BME280;2826;51.354;9.588;2022-10-19T01:18:21;99294.63;;;7.50;100.00
5609;BME280;2826;51.354;9.588;2022-10-19T01:21:21;99338.28;;;7.76;100.00
5609;BME280;2826;51.354;9.588;2022-10-19T01:24:28;99336.56;;;7.74;100.00
5609;BME280;2826;51.354;9.588;2022-10-19T01:27:23;99330.56;;;7.71;100.00
5609;BME280;2826;51.354;9.588;2022-10-19T01:30:00;99333.16;;;7.70;100.00
5609;BME280;2826;51.354;9.588;2022-10-19T01:32:32;99335.75;;;7.67;100.00
5609;BME280;2826;51.354;9.588;2022-10-19T01:35:06;99311.75;;;7.58;100.00
5609;BME280;2826;51.354;9.588;2022-10-19T01:37:41;99326.31;;;7.66;100.00
5609;BME280;2826;51.354;9.588;2022-10-19T01:40:18;99324.59;;;7.63;100.00
5609;BME280;2826;51.354;9.588;2022-10-19T01:42:53;99331.47;;;7.63;100.00
5609;BME280;2826;51.354;9.588;2022-10-19T01:45:27;99331.47;;;7.63;100.00
5609;BME280;2826;51.354;9.588;2022-10-19T01:48:01;99323.72;;;7.64;100.00
5609;BME280;2826;51.354;9.588;2022-10-19T01:50:35;99321.19;;;7.61;100.00
5609;BME280;2826;51.354;9.588;2022-10-19T01:53:06;99299.78;;;7.47;100.00
5609;BME280;2826;51.354;9.588;2022-10-19T01:55:36;99316.06;;;7.58;100.00
5609;BME280;2826;51.354;9.588;2022-10-19T01:58:11;99308.31;;;7.55;100.00
5609;BME280;2826;51.354;9.588;2022-10-19T02:00:43;99320.41;;;7.53;100.00
5609;BME280;2826;51.354;9.588;2022-10-19T02:03:11;99316.97;;;7.52;100.00
5609;BME280;2826;51.354;9.588;2022-10-19T02:05:39;99320.41;;;7.54;100.00
5609;BME280;2826;51.354;9.588;2022-10-19T02:08:13;99322.09;;;7.55;100.00
5609;BME280;2826;51.354;9.588;2022-10-19T02:10:42;99305.78;;;7.52;100.00
5609;BME280;2826;51.354;9.588;2022-10-19T02:13:11;99307.53;;;7.48;100.00
5609;BME280;2826;51.354;9.588;2022-10-19T02:15:43;99322.09;;;7.55;100.00
5609;BME280;2826;51.354;9.588;2022-10-19T02:18:14;99286.16;;;7.32;100.00
5609;BME280;2826;51.354;9.588;2022-10-19T02:20:43;99319.53;;;7.52;100.00
5609;BME280;2826;51.354;9.588;2022-10-19T02:23:10;99310.03;;;7.57;100.00
5609;BME280;2826;51.354;9.588;2022-10-19T02:25:39;99315.16;;;7.62;100.00
5609;BME280;2826;51.354;9.588;2022-10-19T02:28:06;99307.41;;;7.65;100.00
5609;BME280;2826;51.354;9.588;2022-10-19T02:30:33;99311.66;;;7.68;100.00
5609;BME280;2826;51.354;9.588;2022-10-19T02:33:01;99303.88;;;7.72;100.00
5609;BME280;2826;51.354;9.588;2022-10-19T02:35:28;99299.50;;;7.79;100.00
5609;BME280;2826;51.354;9.588;2022-10-19T02:37:59;99298.59;;;7.85;100.00
5609;BME280;2826;51.354;9.588;2022-10-19T02:40:28;99294.19;;;7.93;100.00
5609;BME280;2826;51.354;9.588;2022-10-19T02:43:02;99297.56;;;8.00;100.00
5609;BME280;2826;51.354;9.588;2022-10-19T02:45:31;99294.03;;;8.07;100.00
5609;BME280;2826;51.354;9.588;2022-10-19T02:48:05;99293.09;;;8.13;100.00
5609;BME280;2826;51.354;9.588;2022-10-19T02:50:33;99288.78;;;8.15;100.00
5609;BME280;2826;51.354;9.588;2022-10-19T02:53:00;99298.25;;;8.18;100.00
5609;BME280;2826;51.354;9.588;2022-10-19T02:55:27;99298.25;;;8.18;100.00
5609;BME280;2826;51.354;9.588;2022-10-19T02:57:54;99308.63;;;8.11;100.00
5609;BME280;2826;51.354;9.588;2022-10-19T03:00:22;99304.41;;;8.06;100.00
5609;BME280;2826;51.354;9.588;2022-10-19T03:02:50;99313.09;;;7.95;100.00
5609;BME280;2826;51.354;9.588;2022-10-19T03:05:18;99310.59;;;7.88;100.00
5609;BME280;2826;51.354;9.588;2022-10-19T03:08:04;99314.09;;;7.85;100.00
5609;BME280;2826;51.354;9.588;2022-10-19T03:10:30;99314.09;;;7.80;100.00
5609;BME280;2826;51.354;9.588;2022-10-19T03:12:57;99314.19;;;7.72;100.00
5609;BME280;2826;51.354;9.588;2022-10-19T03:15:24;99326.31;;;7.63;100.00
5609;BME280;2826;51.354;9.588;2022-10-19T03:17:54;99324.69;;;7.54;100.00
5609;BME280;2826;51.354;9.588;2022-10-19T03:20:23;99322.09;;;7.57;100.00
5609;BME280;2826;51.354;9.588;2022-10-19T03:22:50;99307.53;;;7.50;100.00
5609;BME280;2826;51.354;9.588;2022-10-19T03:25:17;99321.97;;;7.69;100.00
5609;BME280;2826;51.354;9.588;2022-10-19T03:27:44;99316.75;;;7.77;100.00
5609;BME280;2826;51.354;9.588;2022-10-19T03:30:11;99317.56;;;7.82;100.00
5609;BME280;2826;51.354;9.588;2022-10-19T03:32:38;99316.75;;;7.77;100.00
5609;BME280;2826;51.354;9.588;2022-10-19T03:35:06;99315.88;;;7.78;100.00
5609;BME280;2826;51.354;9.588;2022-10-19T03:37:34;99319.25;;;7.83;100.00
5609;BME280;2826;51.354;9.588;2022-10-19T03:40:01;99323.53;;;7.88;100.00
5609;BME280;2826;51.354;9.588;2022-10-19T03:42:28;99321.84;;;7.80;100.00
5609;BME280;2826;51.354;9.588;2022-10-19T03:44:55;99315.06;;;7.73;100.00
5609;BME280;2826;51.354;9.588;2022-10-19T03:47:22;99321.97;;;7.69;100.00
5609;BME280;2826;51.354;9.588;2022-10-19T03:49:49;99315.94;;;7.72;100.00
5609;BME280;2826;51.354;9.588;2022-10-19T03:52:16;99325.38;;;7.76;100.00
5609;BME280;2826;51.354;9.588;2022-10-19T03:54:48;99319.25;;;7.82;100.00
5609;BME280;2826;51.354;9.588;2022-10-19T03:57:15;99322.69;;;7.86;100.00
5609;BME280;2826;51.354;9.588;2022-10-19T03:59:42;99321.81;;;7.87;100.00
5609;BME280;2826;51.354;9.588;2022-10-19T04:02:09;99332.13;;;7.88;100.00
5609;BME280;2826;51.354;9.588;2022-10-19T04:04:35;99327.81;;;7.89;100.00
5609;BME280;2826;51.354;9.588;2022-10-19T04:07:02;99332.09;;;7.91;100.00
5609;BME280;2826;51.354;9.588;2022-10-19T04:09:29;99334.66;;;7.93;100.00
5609;BME280;2826;51.354;9.588;2022-10-19T04:11:57;99336.34;;;7.95;100.00
5609;BME280;2826;51.354;9.588;2022-10-19T04:14:24;99338.03;;;8.01;100.00
5609;BME280;2826;51.354;9.588;2022-10-19T04:16:50;99336.31;;;8.02;100.00
5609;BME280;2826;51.354;9.588;2022-10-19T04:19:17;99334.56;;;8.02;100.00
5609;BME280;2826;51.354;9.588;2022-10-19T04:21:47;99328.53;;;8.03;100.00
5609;BME280;2826;51.354;9.588;2022-10-19T04:24:16;99325.97;;;8.03;100.00
5609;BME280;2826;51.354;9.588;2022-10-19T04:26:44;99303.66;;;7.93;100.00
5609;BME280;2826;51.354;9.588;2022-10-19T04:29:13;99328.47;;;8.09;100.00
5609;BME280;2826;51.354;9.588;2022-10-19T04:31:40;99330.16;;;8.10;100.00
5609;BME280;2826;51.354;9.588;2022-10-19T04:34:07;99332.75;;;8.09;100.00
5609;BME280;2826;51.354;9.588;2022-10-19T04:36:35;99325.97;;;8.02;100.00
5609;BME280;2826;51.354;9.588;2022-10-19T04:39:02;99338.00;;;8.04;100.00
5609;BME280;2826;51.354;9.588;2022-10-19T04:41:28;99332.88;;;7.98;100.00
5609;BME280;2826;51.354;9.588;2022-10-19T04:43:57;99333.75;;;7.95;100.00
5609;BME280;2826;51.354;9.588;2022-10-19T04:46:26;99337.28;;;7.90;100.00
5609;BME280;2826;51.354;9.588;2022-10-19T04:48:54;99340.72;;;7.89;100.00
5609;BME280;2826;51.354;9.588;2022-10-19T04:51:22;99345.88;;;7.89;100.00
5609;BME280;2826;51.354;9.588;2022-10-19T04:53:49;99341.59;;;7.86;100.00
5609;BME280;2826;51.354;9.588;2022-10-19T04:56:18;99347.63;;;7.88;100.00
5609;BME280;2826;51.354;9.588;2022-10-19T04:58:45;99327.97;;;7.75;100.00
5609;BME280;2826;51.354;9.588;2022-10-19T05:01:14;99345.94;;;7.86;100.00
5609;BME280;2826;51.354;9.588;2022-10-19T05:03:43;99348.53;;;7.86;100.00
5609;BME280;2826;51.354;9.588;2022-10-19T05:06:11;99328.69;;;7.89;100.00
5609;BME280;2826;51.354;9.588;2022-10-19T05:08:38;99333.81;;;7.91;100.00
5609;BME280;2826;51.354;9.588;2022-10-19T05:11:07;99332.94;;;7.93;100.00
5609;BME280;2826;51.354;9.588;2022-10-19T05:13:34;99323.59;;;7.83;100.00
5609;BME280;2826;51.354;9.588;2022-10-19T05:16:04;99333.78;;;7.94;100.00
5609;BME280;2826;51.354;9.588;2022-10-19T05:18:32;99335.50;;;7.96;100.00
5609;BME280;2826;51.354;9.588;2022-10-19T05:21:01;99330.34;;;7.96;100.00
5609;BME280;2826;51.354;9.588;2022-10-19T05:23:29;99333.84;;;7.88;100.00
5609;BME280;2826;51.354;9.588;2022-10-19T05:26:00;99324.44;;;7.80;100.00
5609;BME280;2826;51.354;9.588;2022-10-19T05:28:28;99284.25;;;7.54;100.00
5609;BME280;2826;51.354;9.588;2022-10-19T05:30:55;99319.31;;;7.77;100.00
5609;BME280;2826;51.354;9.588;2022-10-19T05:33:30;99320.16;;;7.79;100.00
5609;BME280;2826;51.354;9.588;2022-10-19T05:35:56;99327.09;;;7.76;100.00
5609;BME280;2826;51.354;9.588;2022-10-19T05:38:25;99321.94;;;7.72;100.00
5609;BME280;2826;51.354;9.588;2022-10-19T05:40:52;99331.38;;;7.75;100.00
5609;BME280;2826;51.354;9.588;2022-10-19T05:43:19;99338.28;;;7.76;100.00
5609;BME280;2826;51.354;9.588;2022-10-19T05:45:46;99331.38;;;7.75;100.00
5609;BME280;2826;51.354;9.588;2022-10-19T05:48:12;99330.47;;;7.79;100.00
5609;BME280;2826;51.354;9.588;2022-10-19T05:50:39;99333.06;;;7.81;100.00
5609;BME280;2826;51.354;9.588;2022-10-19T05:53:06;99329.59;;;7.83;100.00
5609;BME280;2826;51.354;9.588;2022-10-19T05:55:34;99330.44;;;7.84;100.00
5609;BME280;2826;51.354;9.588;2022-10-19T05:58:01;99314.25;;;7.66;100.00
5609;BME280;2826;51.354;9.588;2022-10-19T06:00:29;99337.44;;;7.72;100.00
5609;BME280;2826;51.354;9.588;2022-10-19T06:02:55;99337.41;;;7.76;100.00
5609;BME280;2826;51.354;9.588;2022-10-19T06:05:22;99334.81;;;7.79;100.00
5609;BME280;2826;51.354;9.588;2022-10-19T06:07:49;99328.78;;;7.77;100.00
5609;BME280;2826;51.354;9.588;2022-10-19T06:10:16;99324.47;;;7.79;100.00
5609;BME280;2826;51.354;9.588;2022-10-19T06:12:45;99320.13;;;7.86;100.00
5609;BME280;2826;51.354;9.588;2022-10-19T06:15:12;99326.09;;;7.89;100.00
5609;BME280;2826;51.354;9.588;2022-10-19T06:17:39;99329.56;;;7.88;100.00
5609;BME280;2826;51.354;9.588;2022-10-19T06:20:06;99326.91;;;7.91;100.00
5609;BME280;2826;51.354;9.588;2022-10-19T06:22:33;99330.28;;;7.98;100.00
5609;BME280;2826;51.354;9.588;2022-10-19T06:25:00;99334.63;;;7.96;100.00
5609;BME280;2826;51.354;9.588;2022-10-19T06:27:27;99332.94;;;7.92;100.00
5609;BME280;2826;51.354;9.588;2022-10-19T06:29:56;99333.75;;;7.98;100.00
5609;BME280;2826;51.354;9.588;2022-10-19T06:32:23;99331.13;;;8.02;100.00
5609;BME280;2826;51.354;9.588;2022-10-19T06:34:49;99328.47;;;8.09;100.00
5609;BME280;2826;51.354;9.588;2022-10-19T06:37:16;99347.34;;;8.16;100.00
5609;BME280;2826;51.354;9.588;2022-10-19T06:39:43;99341.41;;;8.08;100.00
5609;BME280;2826;51.354;9.588;2022-10-19T06:42:10;99340.50;;;8.12;100.00
5609;BME280;2826;51.354;9.588;2022-10-19T06:44:36;99350.75;;;8.18;100.00
5609;BME280;2826;51.354;9.588;2022-10-19T06:47:05;99350.75;;;8.20;100.00
5609;BME280;2826;51.354;9.588;2022-10-19T06:49:31;99358.44;;;8.26;100.00
5609;BME280;2826;51.354;9.588;2022-10-19T06:52:00;99350.59;;;8.34;100.00
5609;BME280;2826;51.354;9.588;2022-10-19T06:54:27;99352.19;;;8.43;100.00
5609;BME280;2826;51.354;9.588;2022-10-19T06:56:54;99346.19;;;8.44;100.00
5609;BME280;2826;51.354;9.588;2022-10-19T06:59:21;99347.81;;;8.51;100.00
5609;BME280;2826;51.354;9.588;2022-10-19T07:01:48;99346.91;;;8.58;100.00
5609;BME280;2826;51.354;9.588;2022-10-19T07:04:16;99351.16;;;8.61;100.00
5609;BME280;2826;51.354;9.588;2022-10-19T07:06:42;99345.22;;;8.53;100.00
5609;BME280;2826;51.354;9.588;2022-10-19T07:09:09;99346.09;;;8.55;100.00
5609;BME280;2826;51.354;9.588;2022-10-19T07:11:36;99354.53;;;8.68;100.00
5609;BME280;2826;51.354;9.588;2022-10-19T07:14:03;99351.72;;;8.83;100.00
5609;BME280;2826;51.354;9.588;2022-10-19T07:16:30;99350.72;;;8.95;100.00
5609;BME280;2826;51.354;9.588;2022-10-19T07:18:59;99347.88;;;9.14;100.00
5609;BME280;2826;51.354;9.588;2022-10-19T07:21:27;99345.03;;;9.31;100.00
5609;BME280;2826;51.354;9.588;2022-10-19T07:23:54;99343.06;;;9.46;100.00
5609;BME280;2826;51.354;9.588;2022-10-19T07:26:22;99345.53;;;9.53;100.00
5609;BME280;2826;51.354;9.588;2022-10-19T07:28:52;99353.16;;;9.63;100.00
5609;BME280;2826;51.354;9.588;2022-10-19T07:31:21;99358.25;;;9.67;100.00
5609;BME280;2826;51.354;9.588;2022-10-19T07:33:51;99351.53;;;9.56;100.00
5609;BME280;2826;51.354;9.588;2022-10-19T07:36:18;99306.34;;;9.22;100.00
5609;BME280;2826;51.354;9.588;2022-10-19T07:38:46;99357.66;;;9.50;100.00
5609;BME280;2826;51.354;9.588;2022-10-19T07:41:14;99356.94;;;9.41;100.00
5609;BME280;2826;51.354;9.588;2022-10-19T07:43:43;99360.56;;;9.31;100.00
5609;BME280;2826;51.354;9.588;2022-10-19T07:46:13;99360.63;;;9.26;100.00
5609;BME280;2826;51.354;9.588;2022-10-19T07:48:40;99333.28;;;9.08;100.00
5609;BME280;2826;51.354;9.588;2022-10-19T07:51:10;99365.69;;;9.34;100.00
5609;BME280;2826;51.354;9.588;2022-10-19T07:53:37;99363.91;;;9.36;100.00
5609;BME280;2826;51.354;9.588;2022-10-19T07:56:07;99349.47;;;9.21;100.00
5609;BME280;2826;51.354;9.588;2022-10-19T07:58:35;99362.16;;;9.40;100.00
5609;BME280;2826;51.354;9.588;2022-10-19T08:01:03;99369.69;;;9.54;100.00
5609;BME280;2826;51.354;9.588;2022-10-19T08:03:30;99368.75;;;9.58;100.00
5609;BME280;2826;51.354;9.588;2022-10-19T08:05:59;99362.63;;;9.64;100.00
5609;BME280;2826;51.354;9.588;2022-10-19T08:08:26;99363.41;;;9.67;100.00
5609;BME280;2826;51.354;9.588;2022-10-19T08:10:54;99366.78;;;9.73;100.00
5609;BME280;2826;51.354;9.588;2022-10-19T08:13:22;99371.75;;;9.85;100.00
5609;BME280;2826;51.354;9.588;2022-10-19T08:15:49;99375.13;;;9.90;100.00
5609;BME280;2826;51.354;9.588;2022-10-19T08:18:16;99367.19;;;10.00;100.00
5609;BME280;2826;51.354;9.588;2022-10-19T08:20:43;99362.81;;;10.03;100.00
5609;BME280;2826;51.354;9.588;2022-10-19T08:23:10;99371.56;;;9.98;100.00
5609;BME280;2826;51.354;9.588;2022-10-19T08:25:37;99367.44;;;9.86;100.00
5609;BME280;2826;51.354;9.588;2022-10-19T08:28:04;99364.84;;;9.87;100.00
5609;BME280;2826;51.354;9.588;2022-10-19T08:30:32;99363.84;;;9.93;100.00
5609;BME280;2826;51.354;9.588;2022-10-19T08:32:59;99359.63;;;9.89;100.00
5609;BME280;2826;51.354;9.588;2022-10-19T08:35:26;99345.38;;;9.64;100.00
5609;BME280;2826;51.354;9.588;2022-10-19T08:37:53;99363.53;;;9.63;100.00
5609;BME280;2826;51.354;9.588;2022-10-19T08:40:22;99361.00;;;9.57;100.00
5609;BME280;2826;51.354;9.588;2022-10-19T08:42:54;99366.09;;;9.63;100.00
5609;BME280;2826;51.354;9.588;2022-10-19T08:45:29;99356.44;;;9.73;100.00
5609;BME280;2826;51.354;9.588;2022-10-19T08:48:16;99361.34;;;9.90;100.00
5609;BME280;2826;51.354;9.588;2022-10-19T08:50:46;99358.34;;;10.12;100.00
5609;BME280;2826;51.354;9.588;2022-10-19T08:53:16;99348.38;;;10.36;100.00
5609;BME280;2826;51.354;9.588;2022-10-19T08:55:51;99340.22;;;10.57;100.00
5609;BME280;2826;51.354;9.588;2022-10-19T08:58:31;99343.13;;;10.83;100.00
5609;BME280;2826;51.354;9.588;2022-10-19T09:01:06;99345.41;;;10.98;100.00
5609;BME280;2826;51.354;9.588;2022-10-19T09:03:40;99352.59;;;10.85;100.00
5609;BME280;2826;51.354;9.588;2022-10-19T09:06:15;99343.31;;;10.75;100.00
5609;BME280;2826;51.354;9.588;2022-10-19T09:08:47;99343.38;;;10.72;100.00
5609;BME280;2826;51.354;9.588;2022-10-19T09:11:19;99339.97;;;10.70;100.00
5609;BME280;2826;51.354;9.588;2022-10-19T09:13:47;99311.69;;;10.57;100.00
5609;BME280;2826;51.354;9.588;2022-10-19T09:16:17;99321.63;;;10.78;98.33
5609;BME280;2826;51.354;9.588;2022-10-19T09:18:47;99345.41;;;10.98;94.83
5609;BME280;2826;51.354;9.588;2022-10-19T09:21:16;99340.94;;;11.05;93.61
5609;BME280;2826;51.354;9.588;2022-10-19T09:23:49;99345.94;;;11.13;92.36
5609;BME280;2826;51.354;9.588;2022-10-19T09:26:21;99336.28;;;11.18;91.26
5609;BME280;2826;51.354;9.588;2022-10-19T09:28:53;99338.81;;;11.21;89.51
5609;BME280;2826;51.354;9.588;2022-10-19T09:31:25;99337.22;;;11.16;87.99
5609;BME280;2826;51.354;9.588;2022-10-19T09:33:57;99344.03;;;11.21;89.00
5609;BME280;2826;51.354;9.588;2022-10-19T09:36:34;99346.50;;;11.26;89.05
5609;BME280;2826;51.354;9.588;2022-10-19T09:39:02;99350.00;;;11.23;87.54
5609;BME280;2826;51.354;9.588;2022-10-19T09:41:30;99342.38;;;11.17;86.82
5609;BME280;2826;51.354;9.588;2022-10-19T09:43:57;99349.22;;;11.21;88.30
5609;BME280;2826;51.354;9.588;2022-10-19T09:46:33;99344.09;;;11.18;86.93
5609;BME280;2826;51.354;9.588;2022-10-19T09:49:03;99352.75;;;11.17;87.38
5609;BME280;2826;51.354;9.588;2022-10-19T09:51:46;99349.22;;;11.21;85.91
5609;BME280;2826;51.354;9.588;2022-10-19T09:54:23;99349.06;;;11.28;85.30
5609;BME280;2826;51.354;9.588;2022-10-19T09:56:52;99351.41;;;11.39;85.81
5609;BME280;2826;51.354;9.588;2022-10-19T09:59:21;99344.47;;;11.39;84.28
5609;BME280;2826;51.354;9.588;2022-10-19T10:01:59;99348.53;;;11.49;85.60
5609;BME280;2826;51.354;9.588;2022-10-19T10:04:28;99348.47;;;11.53;84.40
5609;BME280;2826;51.354;9.588;2022-10-19T10:06:56;99340.53;;;11.59;84.79
5609;BME280;2826;51.354;9.588;2022-10-19T10:09:25;99350.31;;;11.84;84.56
5609;BME280;2826;51.354;9.588;2022-10-19T10:11:56;99346.50;;;11.97;83.00
5609;BME280;2826;51.354;9.588;2022-10-19T10:14:26;99346.41;;;11.99;80.80
5609;BME280;2826;51.354;9.588;2022-10-19T10:16:55;99343.78;;;12.00;80.51
5609;BME280;2826;51.354;9.588;2022-10-19T10:19:26;99344.59;;;12.04;81.28
5609;BME280;2826;51.354;9.588;2022-10-19T10:21:56;99340.22;;;12.05;80.20
5609;BME280;2826;51.354;9.588;2022-10-19T10:24:24;99337.31;;;12.17;79.48
5609;BME280;2826;51.354;9.588;2022-10-19T10:26:54;99322.63;;;12.16;78.85
5609;BME280;2826;51.354;9.588;2022-10-19T10:29:23;99341.16;;;12.35;76.17
5609;BME280;2826;51.354;9.588;2022-10-19T10:31:52;99333.00;;;12.48;75.98
5609;BME280;2826;51.354;9.588;2022-10-19T10:34:33;99318.00;;;12.56;77.30
5609;BME280;2826;51.354;9.588;2022-10-19T10:37:02;99338.91;;;12.83;77.12
5609;BME280;2826;51.354;9.588;2022-10-19T10:39:30;99338.78;;;12.88;74.89
5609;BME280;2826;51.354;9.588;2022-10-19T10:42:03;99322.06;;;12.66;73.12
5609;BME280;2826;51.354;9.588;2022-10-19T10:44:32;99318.59;;;12.66;74.16
5609;BME280;2826;51.354;9.588;2022-10-19T10:47:03;99338.78;;;12.88;72.11
5609;BME280;2826;51.354;9.588;2022-10-19T10:49:33;99338.41;;;13.00;73.23
5609;BME280;2826;51.354;9.588;2022-10-19T10:52:05;99326.47;;;13.22;73.26
5609;BME280;2826;51.354;9.588;2022-10-19T10:54:32;99328.72;;;13.32;72.12
5609;BME280;2826;51.354;9.588;2022-10-19T10:57:09;99326.78;;;13.39;72.97
5609;BME280;2826;51.354;9.588;2022-10-19T10:59:46;99323.22;;;13.42;70.71
5609;BME280;2826;51.354;9.588;2022-10-19T11:02:25;99311.44;;;13.30;70.29
5609;BME280;2826;51.354;9.588;2022-10-19T11:04:58;99321.56;;;13.39;70.74
5609;BME280;2826;51.354;9.588;2022-10-19T11:07:31;99317.91;;;13.45;72.50
5609;BME280;2826;51.354;9.588;2022-10-19T11:10:03;99309.84;;;13.53;72.08
5609;BME280;2826;51.354;9.588;2022-10-19T11:12:36;99314.03;;;13.58;71.37
5609;BME280;2826;51.354;9.588;2022-10-19T11:15:13;99305.97;;;13.65;70.91
5609;BME280;2826;51.354;9.588;2022-10-19T11:17:50;99305.38;;;13.56;69.09
5609;BME280;2826;51.354;9.588;2022-10-19T11:20:21;99294.69;;;13.64;70.73
5609;BME280;2826;51.354;9.588;2022-10-19T11:22:55;99293.50;;;13.75;70.75
5609;BME280;2826;51.354;9.588;2022-10-19T11:25:31;99285.16;;;13.89;71.16
5609;BME280;2826;51.354;9.588;2022-10-19T11:28:14;99284.59;;;14.30;70.33
5609;BME280;2826;51.354;9.588;2022-10-19T11:30:53;99282.03;;;14.76;69.36
5609;BME280;2826;51.354;9.588;2022-10-19T11:33:31;99274.41;;;15.14;67.17
5609;BME280;2826;51.354;9.588;2022-10-19T11:36:06;99254.50;;;15.33;63.58
5609;BME280;2826;51.354;9.588;2022-10-19T11:38:48;99258.94;;;15.72;63.38
5609;BME280;2826;51.354;9.588;2022-10-19T11:41:28;99254.53;;;15.93;62.53
5609;BME280;2826;51.354;9.588;2022-10-19T11:44:09;99245.31;;;16.05;61.49
5609;BME280;2826;51.354;9.588;2022-10-19T11:46:41;99252.97;;;15.89;60.13
5609;BME280;2826;51.354;9.588;2022-10-19T11:49:21;99256.13;;;15.77;60.03
5609;BME280;2826;51.354;9.588;2022-10-19T11:51:57;99246.34;;;15.82;59.90
5609;BME280;2826;51.354;9.588;2022-10-19T11:54:37;99242.66;;;15.86;60.00
5609;BME280;2826;51.354;9.588;2022-10-19T11:57:11;99247.44;;;15.76;57.59
5609;BME280;2826;51.354;9.588;2022-10-19T11:59:48;99236.94;;;15.57;58.83
5609;BME280;2826;51.354;9.588;2022-10-19T12:02:32;99234.72;;;15.48;59.87
5609;BME280;2826;51.354;9.588;2022-10-19T12:05:09;99242.31;;;15.33;59.99
5609;BME280;2826;51.354;9.588;2022-10-19T12:07:53;99228.97;;;15.39;60.03
5609;BME280;2826;51.354;9.588;2022-10-19T12:10:31;99231.97;;;15.30;61.05
5609;BME280;2826;51.354;9.588;2022-10-19T12:13:02;99230.13;;;15.32;61.78
5609;BME280;2826;51.354;9.588;2022-10-19T12:15:32;99217.53;;;15.42;60.49
5609;BME280;2826;51.354;9.588;2022-10-19T12:18:07;99212.75;;;15.52;60.55
5609;BME280;2826;51.354;9.588;2022-10-19T12:20:40;99217.88;;;15.55;57.97
5609;BME280;2826;51.354;9.588;2022-10-19T12:23:20;99198.59;;;15.77;58.45
5609;BME280;2826;51.354;9.588;2022-10-19T12:25:52;99201.47;;;15.91;58.23
5609;BME280;2826;51.354;9.588;2022-10-19T12:28:25;99202.34;;;15.90;56.39
5609;BME280;2826;51.354;9.588;2022-10-19T12:30:52;99197.59;;;16.00;57.20
5609;BME280;2826;51.354;9.588;2022-10-19T12:33:22;99198.22;;;16.05;57.59
5609;BME280;2826;51.354;9.588;2022-10-19T12:36:01;99191.72;;;16.14;56.96
5609;BME280;2826;51.354;9.588;2022-10-19T12:38:38;99187.31;;;16.15;57.37
5609;BME280;2826;51.354;9.588;2022-10-19T12:41:17;99165.44;;;15.98;57.26
5609;BME280;2826;51.354;9.588;2022-10-19T12:43:59;99183.41;;;15.85;56.66
5609;BME280;2826;51.354;9.588;2022-10-19T12:46:34;99189.09;;;15.55;58.41
5609;BME280;2826;51.354;9.588;2022-10-19T12:49:35;99174.31;;;15.54;59.21
5609;BME280;2826;51.354;9.588;2022-10-19T12:52:03;99174.22;;;15.36;57.42
5609;BME280;2826;51.354;9.588;2022-10-19T12:54:34;99182.25;;;15.32;60.02
5609;BME280;2826;51.354;9.588;2022-10-19T12:57:20;99183.81;;;15.15;60.90
5609;BME280;2826;51.354;9.588;2022-10-19T12:59:57;99185.22;;;15.24;58.70
5609;BME280;2826;51.354;9.588;2022-10-19T13:02:28;99183.75;;;15.37;58.30
5609;BME280;2826;51.354;9.588;2022-10-19T13:04:56;99180.09;;;15.41;58.58
5609;BME280;2826;51.354;9.588;2022-10-19T13:07:24;99176.69;;;15.39;59.17
5609;BME280;2826;51.354;9.588;2022-10-19T13:09:59;99176.16;;;15.31;58.20
5609;BME280;2826;51.354;9.588;2022-10-19T13:12:43;99170.56;;;15.20;59.75
5609;BME280;2826;51.354;9.588;2022-10-19T13:24:35;99151.03;;;15.68;58.76
5609;BME280;2826;51.354;9.588;2022-10-19T13:33:41;99136.97;;;15.90;57.89
5609;BME280;2826;51.354;9.588;2022-10-19T13:36:10;99134.88;;;15.79;58.12
5609;BME280;2826;51.354;9.588;2022-10-19T13:38:38;99144.03;;;15.69;58.62
5609;BME280;2826;51.354;9.588;2022-10-19T13:41:12;99141.47;;;15.48;57.67
5609;BME280;2826;51.354;9.588;2022-10-19T13:43:49;99109.69;;;15.18;59.68
5609;BME280;2826;51.354;9.588;2022-10-19T13:46:21;99139.81;;;15.46;59.43
5609;BME280;2826;51.354;9.588;2022-10-19T13:49:04;99143.81;;;15.54;59.01
5609;BME280;2826;51.354;9.588;2022-10-19T13:51:40;99135.19;;;15.52;58.35
5609;BME280;2826;51.354;9.588;2022-10-19T13:54:25;99085.94;;;15.24;59.06
5609;BME280;2826;51.354;9.588;2022-10-19T13:57:05;99125.34;;;15.38;58.65